Main page
METAR-TAF:

METAR-TAF

Airports :

Bandar Abbas, Iran

Bandar Abbas International Airport

latitude: 27-13N, longitude: 056-22E, elevation: 10 m

Current weather observation

The report was made 44 minutes ago, at 16:30 UTC
Wind 8 kt from the South
Temperature 34°C
Humidity 63%
Pressure 997 hPa
Visibility: 4500 m
haze

METAR: OIKB 261630Z 19008KT 4500 HZ NSC 34/26 Q0997 A2945

Time: 21:44 (17:14 UTC)

Forecast

The report was made 6 hours and 14 minutes ago, at 11:00 UTC
Forecast valid from 26 at 12 UTC to 27 at 18 UTC
Wind 6 kt from the Southeast
Visibility: 4000 m
haze
Temporary
from 26 at 12 UTC to 26 at 16 UTC
Wind 19 kt from the West/Southwest
Visibility: 3000 m
sand
Temporary
from 27 at 10 UTC to 27 at 16 UTC
Wind 19 kt from the West/Southwest
Visibility: 3000 m
sand

TAF: OIKB 261100Z 2612/2718 14003MPS 4000 HZ NSC TEMPO 2612/2616 24010MPS 3000 SA TEMPO 2710/2716 24010MPS 3000 SA

Weather observations and forecasts of more than 4000 airports (METAR and TAF reports).

The available stations are represented by yellow and red dots on the map.

Hover mouse over dot to see the name of the station.

Then click to see weather observations and forecasts.

To change the map : click on the green buttons with a black cross to zoom in, on the green button with a dash to zoom out, or on the green arrows for adjacent maps.


METAR-TAF: